sensor_id;sensor_type;location;lat;lon;timestamp;temperature;humidity
6375;DHT22;35400;45.472;-122.822;2023-08-20T00:01:25;30.50;44.10
6375;DHT22;35400;45.472;-122.822;2023-08-20T00:03:52;30.50;44.10
6375;DHT22;35400;45.472;-122.822;2023-08-20T00:06:20;30.60;43.90
6375;DHT22;35400;45.472;-122.822;2023-08-20T00:08:47;30.60;43.30
6375;DHT22;35400;45.472;-122.822;2023-08-20T00:11:14;30.50;42.90
6375;DHT22;35400;45.472;-122.822;2023-08-20T00:13:41;30.50;43.30
6375;DHT22;35400;45.472;-122.822;2023-08-20T00:16:08;30.50;42.80
6375;DHT22;35400;45.472;-122.822;2023-08-20T00:18:36;30.40;42.80
6375;DHT22;35400;45.472;-122.822;2023-08-20T00:21:03;30.30;43.10
6375;DHT22;35400;45.472;-122.822;2023-08-20T00:23:33;30.20;44.00
6375;DHT22;35400;45.472;-122.822;2023-08-20T00:26:01;30.20;44.90
6375;DHT22;35400;45.472;-122.822;2023-08-20T00:28:28;30.20;44.70
6375;DHT22;35400;45.472;-122.822;2023-08-20T00:30:55;30.10;44.20
6375;DHT22;35400;45.472;-122.822;2023-08-20T00:33:22;30.10;44.90
6375;DHT22;35400;45.472;-122.822;2023-08-20T00:35:49;30.10;45.00
6375;DHT22;35400;45.472;-122.822;2023-08-20T00:38:16;30.00;45.50
6375;DHT22;35400;45.472;-122.822;2023-08-20T00:40:43;30.00;45.00
6375;DHT22;35400;45.472;-122.822;2023-08-20T00:43:10;30.00;44.90
6375;DHT22;35400;45.472;-122.822;2023-08-20T00:45:37;29.90;45.10
6375;DHT22;35400;45.472;-122.822;2023-08-20T00:48:05;29.90;45.10
6375;DHT22;35400;45.472;-122.822;2023-08-20T00:50:33;29.90;45.60
6375;DHT22;35400;45.472;-122.822;2023-08-20T00:53:02;29.90;46.10
6375;DHT22;35400;45.472;-122.822;2023-08-20T00:55:28;29.80;45.20
6375;DHT22;35400;45.472;-122.822;2023-08-20T00:57:56;29.80;45.20
6375;DHT22;35400;45.472;-122.822;2023-08-20T01:00:24;29.80;45.40
6375;DHT22;35400;45.472;-122.822;2023-08-20T01:02:50;29.80;45.00
6375;DHT22;35400;45.472;-122.822;2023-08-20T01:05:18;29.70;44.60
6375;DHT22;35400;45.472;-122.822;2023-08-20T01:13:48;29.40;45.40
6375;DHT22;35400;45.472;-122.822;2023-08-20T01:16:15;29.30;45.70
6375;DHT22;35400;45.472;-122.822;2023-08-20T01:18:42;29.30;46.00
6375;DHT22;35400;45.472;-122.822;2023-08-20T01:21:29;29.20;45.90
6375;DHT22;35400;45.472;-122.822;2023-08-20T01:24:10;29.10;45.90
6375;DHT22;35400;45.472;-122.822;2023-08-20T01:29:13;29.00;46.20
6375;DHT22;35400;45.472;-122.822;2023-08-20T01:31:40;29.00;46.10
6375;DHT22;35400;45.472;-122.822;2023-08-20T01:34:09;28.90;46.00
6375;DHT22;35400;45.472;-122.822;2023-08-20T01:36:35;28.80;46.70
6375;DHT22;35400;45.472;-122.822;2023-08-20T01:39:02;28.80;46.90
6375;DHT22;35400;45.472;-122.822;2023-08-20T01:41:31;28.80;46.80
6375;DHT22;35400;45.472;-122.822;2023-08-20T01:43:58;28.70;46.30
6375;DHT22;35400;45.472;-122.822;2023-08-20T01:46:24;28.70;46.50
6375;DHT22;35400;45.472;-122.822;2023-08-20T01:48:51;28.60;46.50
6375;DHT22;35400;45.472;-122.822;2023-08-20T01:51:18;28.60;46.70
6375;DHT22;35400;45.472;-122.822;2023-08-20T01:53:45;28.50;46.80
6375;DHT22;35400;45.472;-122.822;2023-08-20T01:56:12;28.40;47.60
6375;DHT22;35400;45.472;-122.822;2023-08-20T01:58:40;28.30;47.20
6375;DHT22;35400;45.472;-122.822;2023-08-20T02:01:06;28.30;47.50
6375;DHT22;35400;45.472;-122.822;2023-08-20T02:03:36;28.20;46.90
6375;DHT22;35400;45.472;-122.822;2023-08-20T02:06:03;28.10;47.70
6375;DHT22;35400;45.472;-122.822;2023-08-20T02:08:30;28.10;47.20
6375;DHT22;35400;45.472;-122.822;2023-08-20T02:11:03;28.10;47.20
6375;DHT22;35400;45.472;-122.822;2023-08-20T02:13:31;28.00;47.50
6375;DHT22;35400;45.472;-122.822;2023-08-20T02:16:02;27.90;47.20
6375;DHT22;35400;45.472;-122.822;2023-08-20T02:18:30;27.80;47.40
6375;DHT22;35400;45.472;-122.822;2023-08-20T02:20:57;27.80;47.70
6375;DHT22;35400;45.472;-122.822;2023-08-20T02:23:24;27.80;48.10
6375;DHT22;35400;45.472;-122.822;2023-08-20T02:25:51;27.70;48.00
6375;DHT22;35400;45.472;-122.822;2023-08-20T02:28:18;27.70;47.90
6375;DHT22;35400;45.472;-122.822;2023-08-20T02:30:47;27.60;48.20
6375;DHT22;35400;45.472;-122.822;2023-08-20T02:33:13;27.50;48.10
6375;DHT22;35400;45.472;-122.822;2023-08-20T02:35:40;27.40;48.40
6375;DHT22;35400;45.472;-122.822;2023-08-20T02:38:07;27.40;48.60
6375;DHT22;35400;45.472;-122.822;2023-08-20T02:40:40;27.30;48.50
6375;DHT22;35400;45.472;-122.822;2023-08-20T02:43:07;27.20;48.90
6375;DHT22;35400;45.472;-122.822;2023-08-20T02:45:40;27.20;48.80
6375;DHT22;35400;45.472;-122.822;2023-08-20T02:48:08;27.20;48.80
6375;DHT22;35400;45.472;-122.822;2023-08-20T02:50:36;27.20;49.00
6375;DHT22;35400;45.472;-122.822;2023-08-20T02:53:03;27.10;48.60
6375;DHT22;35400;45.472;-122.822;2023-08-20T02:55:31;27.10;48.40
6375;DHT22;35400;45.472;-122.822;2023-08-20T02:57:58;27.10;48.40
6375;DHT22;35400;45.472;-122.822;2023-08-20T03:00:25;27.00;48.40
6375;DHT22;35400;45.472;-122.822;2023-08-20T03:02:52;26.80;48.50
6375;DHT22;35400;45.472;-122.822;2023-08-20T03:05:19;26.90;48.60
6375;DHT22;35400;45.472;-122.822;2023-08-20T03:07:46;26.80;47.80
6375;DHT22;35400;45.472;-122.822;2023-08-20T03:10:13;26.80;47.70
6375;DHT22;35400;45.472;-122.822;2023-08-20T03:12:40;26.70;47.00
6375;DHT22;35400;45.472;-122.822;2023-08-20T03:15:07;26.60;46.00
6375;DHT22;35400;45.472;-122.822;2023-08-20T03:17:37;26.50;45.70
6375;DHT22;35400;45.472;-122.822;2023-08-20T03:20:05;26.50;46.10
6375;DHT22;35400;45.472;-122.822;2023-08-20T03:22:32;26.40;45.50
6375;DHT22;35400;45.472;-122.822;2023-08-20T03:24:59;26.40;44.60
6375;DHT22;35400;45.472;-122.822;2023-08-20T03:27:26;26.30;45.10
6375;DHT22;35400;45.472;-122.822;2023-08-20T03:29:53;26.30;45.10
6375;DHT22;35400;45.472;-122.822;2023-08-20T03:32:20;26.30;44.30
6375;DHT22;35400;45.472;-122.822;2023-08-20T03:34:47;26.20;44.10
6375;DHT22;35400;45.472;-122.822;2023-08-20T03:37:18;26.20;43.80
6375;DHT22;35400;45.472;-122.822;2023-08-20T03:39:44;26.10;43.40
6375;DHT22;35400;45.472;-122.822;2023-08-20T03:42:11;26.10;43.80
6375;DHT22;35400;45.472;-122.822;2023-08-20T03:44:38;26.00;43.90
6375;DHT22;35400;45.472;-122.822;2023-08-20T03:47:05;25.90;43.80
6375;DHT22;35400;45.472;-122.822;2023-08-20T03:49:32;25.90;44.10
6375;DHT22;35400;45.472;-122.822;2023-08-20T03:51:59;25.90;44.30
6375;DHT22;35400;45.472;-122.822;2023-08-20T03:54:29;25.80;44.60
6375;DHT22;35400;45.472;-122.822;2023-08-20T03:56:56;25.70;44.60
6375;DHT22;35400;45.472;-122.822;2023-08-20T03:59:23;25.60;44.60
6375;DHT22;35400;45.472;-122.822;2023-08-20T04:01:51;25.60;44.90
6375;DHT22;35400;45.472;-122.822;2023-08-20T04:04:17;25.50;45.10
6375;DHT22;35400;45.472;-122.822;2023-08-20T04:06:44;25.40;45.60
6375;DHT22;35400;45.472;-122.822;2023-08-20T04:09:11;25.40;45.50
6375;DHT22;35400;45.472;-122.822;2023-08-20T04:11:39;25.40;45.10
6375;DHT22;35400;45.472;-122.822;2023-08-20T04:14:05;25.30;45.60
6375;DHT22;35400;45.472;-122.822;2023-08-20T04:16:32;25.20;45.20
6375;DHT22;35400;45.472;-122.822;2023-08-20T04:19:00;25.20;45.10
6375;DHT22;35400;45.472;-122.822;2023-08-20T04:21:26;25.10;44.70
6375;DHT22;35400;45.472;-122.822;2023-08-20T04:23:53;25.00;44.80
6375;DHT22;35400;45.472;-122.822;2023-08-20T04:26:20;25.00;44.80
6375;DHT22;35400;45.472;-122.822;2023-08-20T04:28:47;24.90;44.20
6375;DHT22;35400;45.472;-122.822;2023-08-20T04:31:14;24.80;44.70
6375;DHT22;35400;45.472;-122.822;2023-08-20T04:33:50;24.80;45.20
6375;DHT22;35400;45.472;-122.822;2023-08-20T04:36:21;24.80;44.10
6375;DHT22;35400;45.472;-122.822;2023-08-20T04:38:48;24.70;44.00
6375;DHT22;35400;45.472;-122.822;2023-08-20T04:41:15;24.60;43.90
6375;DHT22;35400;45.472;-122.822;2023-08-20T04:43:43;24.60;44.00
6375;DHT22;35400;45.472;-122.822;2023-08-20T04:46:10;24.60;44.00
6375;DHT22;35400;45.472;-122.822;2023-08-20T04:48:37;24.50;44.00
6375;DHT22;35400;45.472;-122.822;2023-08-20T04:51:05;24.50;44.00
6375;DHT22;35400;45.472;-122.822;2023-08-20T04:53:33;24.50;44.10
6375;DHT22;35400;45.472;-122.822;2023-08-20T04:56:00;24.50;43.90
6375;DHT22;35400;45.472;-122.822;2023-08-20T04:58:27;24.50;43.80
6375;DHT22;35400;45.472;-122.822;2023-08-20T05:00:54;24.60;43.70
6375;DHT22;35400;45.472;-122.822;2023-08-20T05:03:46;24.60;43.10
6375;DHT22;35400;45.472;-122.822;2023-08-20T05:06:13;24.60;43.30
6375;DHT22;35400;45.472;-122.822;2023-08-20T05:08:41;24.60;43.50
6375;DHT22;35400;45.472;-122.822;2023-08-20T05:11:08;24.60;43.50
6375;DHT22;35400;45.472;-122.822;2023-08-20T05:13:35;24.60;43.50
6375;DHT22;35400;45.472;-122.822;2023-08-20T05:16:02;24.60;43.90
6375;DHT22;35400;45.472;-122.822;2023-08-20T05:18:29;24.60;44.20
6375;DHT22;35400;45.472;-122.822;2023-08-20T05:20:56;24.50;44.80
6375;DHT22;35400;45.472;-122.822;2023-08-20T05:23:23;24.50;45.00
6375;DHT22;35400;45.472;-122.822;2023-08-20T05:25:50;24.40;45.00
6375;DHT22;35400;45.472;-122.822;2023-08-20T05:28:16;24.30;45.40
6375;DHT22;35400;45.472;-122.822;2023-08-20T05:30:43;24.20;45.90
6375;DHT22;35400;45.472;-122.822;2023-08-20T05:33:10;24.10;46.00
6375;DHT22;35400;45.472;-122.822;2023-08-20T05:35:37;24.00;46.70
6375;DHT22;35400;45.472;-122.822;2023-08-20T05:38:04;24.00;46.90
6375;DHT22;35400;45.472;-122.822;2023-08-20T05:40:31;23.90;47.10
6375;DHT22;35400;45.472;-122.822;2023-08-20T05:42:58;23.80;47.50
6375;DHT22;35400;45.472;-122.822;2023-08-20T05:45:25;23.80;47.90
6375;DHT22;35400;45.472;-122.822;2023-08-20T05:47:53;23.70;48.70
6375;DHT22;35400;45.472;-122.822;2023-08-20T05:50:21;23.60;49.00
6375;DHT22;35400;45.472;-122.822;2023-08-20T05:52:48;23.50;49.30
6375;DHT22;35400;45.472;-122.822;2023-08-20T05:55:15;23.40;49.40
6375;DHT22;35400;45.472;-122.822;2023-08-20T05:57:42;23.40;49.80
6375;DHT22;35400;45.472;-122.822;2023-08-20T06:00:11;23.30;50.10
6375;DHT22;35400;45.472;-122.822;2023-08-20T06:02:41;23.20;50.80
6375;DHT22;35400;45.472;-122.822;2023-08-20T06:05:09;23.20;51.40
6375;DHT22;35400;45.472;-122.822;2023-08-20T06:07:36;23.10;51.40
6375;DHT22;35400;45.472;-122.822;2023-08-20T06:10:03;23.00;51.70
6375;DHT22;35400;45.472;-122.822;2023-08-20T06:12:30;22.90;53.50
6375;DHT22;35400;45.472;-122.822;2023-08-20T06:14:57;22.80;54.00
6375;DHT22;35400;45.472;-122.822;2023-08-20T06:17:23;22.80;54.30
6375;DHT22;35400;45.472;-122.822;2023-08-20T06:19:51;22.70;55.00
6375;DHT22;35400;45.472;-122.822;2023-08-20T06:22:17;22.60;55.20
6375;DHT22;35400;45.472;-122.822;2023-08-20T06:24:44;22.60;55.40
6375;DHT22;35400;45.472;-122.822;2023-08-20T06:27:11;22.50;55.40
6375;DHT22;35400;45.472;-122.822;2023-08-20T06:29:38;22.40;55.80
6375;DHT22;35400;45.472;-122.822;2023-08-20T06:32:05;22.40;56.40
6375;DHT22;35400;45.472;-122.822;2023-08-20T06:34:34;22.30;56.70
6375;DHT22;35400;45.472;-122.822;2023-08-20T06:37:01;22.30;57.10
6375;DHT22;35400;45.472;-122.822;2023-08-20T06:39:28;22.20;57.40
6375;DHT22;35400;45.472;-122.822;2023-08-20T06:41:55;22.20;58.20
6375;DHT22;35400;45.472;-122.822;2023-08-20T06:44:22;22.10;58.10
6375;DHT22;35400;45.472;-122.822;2023-08-20T06:46:49;22.00;58.30
6375;DHT22;35400;45.472;-122.822;2023-08-20T06:49:16;22.00;58.60
6375;DHT22;35400;45.472;-122.822;2023-08-20T06:51:43;21.90;59.00
6375;DHT22;35400;45.472;-122.822;2023-08-20T06:54:09;21.80;59.50
6375;DHT22;35400;45.472;-122.822;2023-08-20T06:56:36;21.80;60.00
6375;DHT22;35400;45.472;-122.822;2023-08-20T06:59:04;21.70;60.40
6375;DHT22;35400;45.472;-122.822;2023-08-20T07:01:30;21.60;61.00
6375;DHT22;35400;45.472;-122.822;2023-08-20T07:03:57;21.60;61.70
6375;DHT22;35400;45.472;-122.822;2023-08-20T07:06:24;21.50;62.00
6375;DHT22;35400;45.472;-122.822;2023-08-20T07:08:51;21.40;62.40
6375;DHT22;35400;45.472;-122.822;2023-08-20T07:11:18;21.40;62.90
6375;DHT22;35400;45.472;-122.822;2023-08-20T07:13:45;21.30;63.40
6375;DHT22;35400;45.472;-122.822;2023-08-20T07:16:11;21.30;64.00
6375;DHT22;35400;45.472;-122.822;2023-08-20T07:18:38;21.20;64.10
6375;DHT22;35400;45.472;-122.822;2023-08-20T07:21:05;21.20;64.70
6375;DHT22;35400;45.472;-122.822;2023-08-20T07:23:34;21.10;65.00
6375;DHT22;35400;45.472;-122.822;2023-08-20T07:26:08;21.10;65.20
6375;DHT22;35400;45.472;-122.822;2023-08-20T07:28:36;21.00;65.80
6375;DHT22;35400;45.472;-122.822;2023-08-20T07:31:31;21.00;65.90
6375;DHT22;35400;45.472;-122.822;2023-08-20T07:34:00;20.90;66.30
6375;DHT22;35400;45.472;-122.822;2023-08-20T07:36:27;20.80;66.40
6375;DHT22;35400;45.472;-122.822;2023-08-20T07:38:54;20.80;66.50
6375;DHT22;35400;45.472;-122.822;2023-08-20T07:41:22;20.80;66.70
6375;DHT22;35400;45.472;-122.822;2023-08-20T07:43:49;20.70;66.80
6375;DHT22;35400;45.472;-122.822;2023-08-20T07:46:16;20.70;67.10
6375;DHT22;35400;45.472;-122.822;2023-08-20T07:48:43;20.60;67.40
6375;DHT22;35400;45.472;-122.822;2023-08-20T07:51:10;20.50;67.30
6375;DHT22;35400;45.472;-122.822;2023-08-20T07:53:36;20.50;67.50
6375;DHT22;35400;45.472;-122.822;2023-08-20T07:56:04;20.40;68.00
6375;DHT22;35400;45.472;-122.822;2023-08-20T07:58:31;20.40;68.40
6375;DHT22;35400;45.472;-122.822;2023-08-20T08:00:58;20.30;68.60
6375;DHT22;35400;45.472;-122.822;2023-08-20T08:03:25;20.20;68.70
6375;DHT22;35400;45.472;-122.822;2023-08-20T08:05:53;20.20;69.00
6375;DHT22;35400;45.472;-122.822;2023-08-20T08:08:23;20.10;69.20
6375;DHT22;35400;45.472;-122.822;2023-08-20T08:10:50;20.10;69.30
6375;DHT22;35400;45.472;-122.822;2023-08-20T08:13:22;20.00;69.40
6375;DHT22;35400;45.472;-122.822;2023-08-20T08:15:51;19.90;69.40
6375;DHT22;35400;45.472;-122.822;2023-08-20T08:18:20;19.90;69.80
6375;DHT22;35400;45.472;-122.822;2023-08-20T08:20:48;19.80;69.90
6375;DHT22;35400;45.472;-122.822;2023-08-20T08:23:15;19.70;70.20
6375;DHT22;35400;45.472;-122.822;2023-08-20T08:25:42;19.70;70.40
6375;DHT22;35400;45.472;-122.822;2023-08-20T08:28:09;19.60;70.60
6375;DHT22;35400;45.472;-122.822;2023-08-20T08:30:37;19.50;71.20
6375;DHT22;35400;45.472;-122.822;2023-08-20T08:33:04;19.50;71.40
6375;DHT22;35400;45.472;-122.822;2023-08-20T08:35:31;19.40;71.40
6375;DHT22;35400;45.472;-122.822;2023-08-20T08:37:57;19.30;71.50
6375;DHT22;35400;45.472;-122.822;2023-08-20T08:40:28;19.30;72.10
6375;DHT22;35400;45.472;-122.822;2023-08-20T08:42:56;19.20;72.40
6375;DHT22;35400;45.472;-122.822;2023-08-20T08:45:23;19.10;72.50
6375;DHT22;35400;45.472;-122.822;2023-08-20T08:47:51;19.10;72.60
6375;DHT22;35400;45.472;-122.822;2023-08-20T08:50:21;19.00;72.80
6375;DHT22;35400;45.472;-122.822;2023-08-20T08:52:51;18.90;73.40
6375;DHT22;35400;45.472;-122.822;2023-08-20T08:55:19;18.90;73.70
6375;DHT22;35400;45.472;-122.822;2023-08-20T08:57:46;18.80;73.80
6375;DHT22;35400;45.472;-122.822;2023-08-20T09:00:13;18.80;74.00
6375;DHT22;35400;45.472;-122.822;2023-08-20T09:02:40;18.70;74.30
6375;DHT22;35400;45.472;-122.822;2023-08-20T09:05:07;18.60;74.50
6375;DHT22;35400;45.472;-122.822;2023-08-20T09:07:34;18.60;74.80
6375;DHT22;35400;45.472;-122.822;2023-08-20T09:10:01;18.60;75.10
6375;DHT22;35400;45.472;-122.822;2023-08-20T09:12:28;18.50;75.00
6375;DHT22;35400;45.472;-122.822;2023-08-20T09:15:00;18.50;75.20
6375;DHT22;35400;45.472;-122.822;2023-08-20T09:17:28;18.40;75.40
6375;DHT22;35400;45.472;-122.822;2023-08-20T09:19:56;18.40;75.40
6375;DHT22;35400;45.472;-122.822;2023-08-20T09:22:23;18.30;75.90
6375;DHT22;35400;45.472;-122.822;2023-08-20T09:24:55;18.30;76.10
6375;DHT22;35400;45.472;-122.822;2023-08-20T09:27:23;18.20;76.20
6375;DHT22;35400;45.472;-122.822;2023-08-20T09:29:54;18.20;76.40
6375;DHT22;35400;45.472;-122.822;2023-08-20T09:32:24;18.10;76.70
6375;DHT22;35400;45.472;-122.822;2023-08-20T09:34:53;18.10;76.80
6375;DHT22;35400;45.472;-122.822;2023-08-20T09:37:21;18.00;77.00
6375;DHT22;35400;45.472;-122.822;2023-08-20T09:39:48;18.00;77.00
6375;DHT22;35400;45.472;-122.822;2023-08-20T09:42:16;18.00;77.30
6375;DHT22;35400;45.472;-122.822;2023-08-20T09:44:45;17.90;77.30
6375;DHT22;35400;45.472;-122.822;2023-08-20T09:47:14;17.90;77.30
6375;DHT22;35400;45.472;-122.822;2023-08-20T09:49:47;17.90;77.30
6375;DHT22;35400;45.472;-122.822;2023-08-20T09:52:39;17.80;77.70
6375;DHT22;35400;45.472;-122.822;2023-08-20T09:55:16;17.80;78.00
6375;DHT22;35400;45.472;-122.822;2023-08-20T09:57:43;17.70;78.00
6375;DHT22;35400;45.472;-122.822;2023-08-20T10:00:11;17.70;78.20
6375;DHT22;35400;45.472;-122.822;2023-08-20T10:02:44;17.60;78.30
6375;DHT22;35400;45.472;-122.822;2023-08-20T10:05:12;17.60;78.50
6375;DHT22;35400;45.472;-122.822;2023-08-20T10:07:42;17.60;78.60
6375;DHT22;35400;45.472;-122.822;2023-08-20T10:10:10;17.50;78.90
6375;DHT22;35400;45.472;-122.822;2023-08-20T10:12:41;17.50;79.00
6375;DHT22;35400;45.472;-122.822;2023-08-20T10:15:09;17.40;79.20
6375;DHT22;35400;45.472;-122.822;2023-08-20T10:17:38;17.40;79.50
6375;DHT22;35400;45.472;-122.822;2023-08-20T10:20:07;17.30;79.90
6375;DHT22;35400;45.472;-122.822;2023-08-20T10:22:38;17.30;80.20
6375;DHT22;35400;45.472;-122.822;2023-08-20T10:25:07;17.30;80.60
6375;DHT22;35400;45.472;-122.822;2023-08-20T10:27:36;17.20;80.80
6375;DHT22;35400;45.472;-122.822;2023-08-20T10:30:11;17.20;80.80
6375;DHT22;35400;45.472;-122.822;2023-08-20T10:33:03;17.10;81.00
6375;DHT22;35400;45.472;-122.822;2023-08-20T10:35:50;17.10;81.30
6375;DHT22;35400;45.472;-122.822;2023-08-20T10:38:17;17.00;81.50
6375;DHT22;35400;45.472;-122.822;2023-08-20T10:40:55;17.00;81.70
6375;DHT22;35400;45.472;-122.822;2023-08-20T10:43:46;16.90;82.00
6375;DHT22;35400;45.472;-122.822;2023-08-20T10:46:20;16.90;82.10
6375;DHT22;35400;45.472;-122.822;2023-08-20T10:48:58;16.80;82.40
6375;DHT22;35400;45.472;-122.822;2023-08-20T10:51:28;16.80;82.70
6375;DHT22;35400;45.472;-122.822;2023-08-20T10:56:57;16.70;83.60
6375;DHT22;35400;45.472;-122.822;2023-08-20T10:59:28;16.70;84.00
6375;DHT22;35400;45.472;-122.822;2023-08-20T11:01:59;16.60;84.10
6375;DHT22;35400;45.472;-122.822;2023-08-20T11:04:31;16.60;84.30
6375;DHT22;35400;45.472;-122.822;2023-08-20T11:07:02;16.60;85.50
6375;DHT22;35400;45.472;-122.822;2023-08-20T11:09:30;16.50;85.10
6375;DHT22;35400;45.472;-122.822;2023-08-20T11:11:58;16.50;85.10
6375;DHT22;35400;45.472;-122.822;2023-08-20T11:14:25;16.40;85.10
6375;DHT22;35400;45.472;-122.822;2023-08-20T11:16:54;16.40;85.20
6375;DHT22;35400;45.472;-122.822;2023-08-20T11:19:22;16.40;85.40
6375;DHT22;35400;45.472;-122.822;2023-08-20T11:21:50;16.30;85.70
6375;DHT22;35400;45.472;-122.822;2023-08-20T11:24:17;16.30;86.00
6375;DHT22;35400;45.472;-122.822;2023-08-20T11:26:46;16.20;86.00
6375;DHT22;35400;45.472;-122.822;2023-08-20T11:29:14;16.20;86.20
6375;DHT22;35400;45.472;-122.822;2023-08-20T11:31:48;16.20;86.40
6375;DHT22;35400;45.472;-122.822;2023-08-20T11:34:16;16.10;86.80
6375;DHT22;35400;45.472;-122.822;2023-08-20T11:36:44;16.10;87.30
6375;DHT22;35400;45.472;-122.822;2023-08-20T11:39:11;16.10;87.70
6375;DHT22;35400;45.472;-122.822;2023-08-20T11:41:41;16.10;89.00
6375;DHT22;35400;45.472;-122.822;2023-08-20T11:44:18;16.00;89.70
6375;DHT22;35400;45.472;-122.822;2023-08-20T11:46:45;16.00;90.00
6375;DHT22;35400;45.472;-122.822;2023-08-20T11:49:13;15.90;90.00
6375;DHT22;35400;45.472;-122.822;2023-08-20T11:51:46;15.90;90.20
6375;DHT22;35400;45.472;-122.822;2023-08-20T11:54:15;15.90;90.20
6375;DHT22;35400;45.472;-122.822;2023-08-20T11:56:46;15.90;90.20
6375;DHT22;35400;45.472;-122.822;2023-08-20T11:59:15;15.80;90.20
6375;DHT22;35400;45.472;-122.822;2023-08-20T12:01:42;15.80;90.30
6375;DHT22;35400;45.472;-122.822;2023-08-20T12:04:10;15.80;90.40
6375;DHT22;35400;45.472;-122.822;2023-08-20T12:06:37;15.70;90.50
6375;DHT22;35400;45.472;-122.822;2023-08-20T12:09:21;15.70;90.60
6375;DHT22;35400;45.472;-122.822;2023-08-20T12:11:52;15.70;90.70
6375;DHT22;35400;45.472;-122.822;2023-08-20T12:14:21;15.70;90.90
6375;DHT22;35400;45.472;-122.822;2023-08-20T12:16:48;15.70;90.90
6375;DHT22;35400;45.472;-122.822;2023-08-20T12:19:17;15.60;91.00
6375;DHT22;35400;45.472;-122.822;2023-08-20T12:21:44;15.60;91.10
6375;DHT22;35400;45.472;-122.822;2023-08-20T12:24:12;15.60;91.20
6375;DHT22;35400;45.472;-122.822;2023-08-20T12:26:39;15.60;91.30
6375;DHT22;35400;45.472;-122.822;2023-08-20T12:29:07;15.50;91.50
6375;DHT22;35400;45.472;-122.822;2023-08-20T12:31:34;15.50;91.60
6375;DHT22;35400;45.472;-122.822;2023-08-20T12:34:01;15.50;91.80
6375;DHT22;35400;45.472;-122.822;2023-08-20T12:36:28;15.40;92.00
6375;DHT22;35400;45.472;-122.822;2023-08-20T12:38:56;15.40;92.30
6375;DHT22;35400;45.472;-122.822;2023-08-20T12:41:22;15.40;92.70
6375;DHT22;35400;45.472;-122.822;2023-08-20T12:43:50;15.30;93.00
6375;DHT22;35400;45.472;-122.822;2023-08-20T12:46:17;15.30;93.30
6375;DHT22;35400;45.472;-122.822;2023-08-20T12:48:44;15.30;93.70
6375;DHT22;35400;45.472;-122.822;2023-08-20T12:51:11;15.20;93.70
6375;DHT22;35400;45.472;-122.822;2023-08-20T12:53:40;15.20;93.90
6375;DHT22;35400;45.472;-122.822;2023-08-20T12:56:07;15.20;94.20
6375;DHT22;35400;45.472;-122.822;2023-08-20T12:58:34;15.20;94.40
6375;DHT22;35400;45.472;-122.822;2023-08-20T13:01:01;15.10;94.60
6375;DHT22;35400;45.472;-122.822;2023-08-20T13:03:28;15.10;94.80
6375;DHT22;35400;45.472;-122.822;2023-08-20T13:05:55;15.10;95.30
6375;DHT22;35400;45.472;-122.822;2023-08-20T13:08:24;15.00;96.00
6375;DHT22;35400;45.472;-122.822;2023-08-20T13:10:54;15.00;96.60
6375;DHT22;35400;45.472;-122.822;2023-08-20T13:13:22;14.90;97.20
6375;DHT22;35400;45.472;-122.822;2023-08-20T13:15:51;14.90;98.10
6375;DHT22;35400;45.472;-122.822;2023-08-20T13:18:19;14.90;98.50
6375;DHT22;35400;45.472;-122.822;2023-08-20T13:20:46;14.80;98.70
6375;DHT22;35400;45.472;-122.822;2023-08-20T13:23:13;14.80;99.00
6375;DHT22;35400;45.472;-122.822;2023-08-20T13:25:40;14.80;99.90
6375;DHT22;35400;45.472;-122.822;2023-08-20T13:28:07;14.80;99.90
6375;DHT22;35400;45.472;-122.822;2023-08-20T13:30:34;14.70;99.90
6375;DHT22;35400;45.472;-122.822;2023-08-20T13:33:01;14.70;99.90
6375;DHT22;35400;45.472;-122.822;2023-08-20T13:35:27;14.70;99.90
6375;DHT22;35400;45.472;-122.822;2023-08-20T13:37:55;14.70;99.90
6375;DHT22;35400;45.472;-122.822;2023-08-20T13:40:22;14.70;99.90
6375;DHT22;35400;45.472;-122.822;2023-08-20T13:42:49;14.60;99.90
6375;DHT22;35400;45.472;-122.822;2023-08-20T13:45:15;14.60;99.90
6375;DHT22;35400;45.472;-122.822;2023-08-20T13:47:42;14.60;99.90
6375;DHT22;35400;45.472;-122.822;2023-08-20T13:50:10;14.60;99.90
6375;DHT22;35400;45.472;-122.822;2023-08-20T13:52:38;14.60;99.90
6375;DHT22;35400;45.472;-122.822;2023-08-20T13:55:05;14.60;99.90
6375;DHT22;35400;45.472;-122.822;2023-08-20T13:57:32;14.60;99.90
6375;DHT22;35400;45.472;-122.822;2023-08-20T13:59:59;14.60;99.90
6375;DHT22;35400;45.472;-122.822;2023-08-20T14:02:26;14.60;99.90
6375;DHT22;35400;45.472;-122.822;2023-08-20T14:04:53;14.60;99.90
6375;DHT22;35400;45.472;-122.822;2023-08-20T14:07:19;14.60;99.90
6375;DHT22;35400;45.472;-122.822;2023-08-20T14:09:46;14.60;99.90
6375;DHT22;35400;45.472;-122.822;2023-08-20T14:12:13;14.70;99.90
6375;DHT22;35400;45.472;-122.822;2023-08-20T14:14:40;14.70;99.90
6375;DHT22;35400;45.472;-122.822;2023-08-20T14:17:09;14.70;99.90
6375;DHT22;35400;45.472;-122.822;2023-08-20T14:19:36;14.80;99.90
6375;DHT22;35400;45.472;-122.822;2023-08-20T14:22:02;14.80;99.90
6375;DHT22;35400;45.472;-122.822;2023-08-20T14:24:29;14.80;99.90
6375;DHT22;35400;45.472;-122.822;2023-08-20T14:26:56;14.90;99.90
6375;DHT22;35400;45.472;-122.822;2023-08-20T14:29:23;14.90;99.90
6375;DHT22;35400;45.472;-122.822;2023-08-20T14:31:50;15.00;99.90
6375;DHT22;35400;45.472;-122.822;2023-08-20T14:34:16;15.00;99.90
6375;DHT22;35400;45.472;-122.822;2023-08-20T14:36:43;15.10;99.90
6375;DHT22;35400;45.472;-122.822;2023-08-20T14:39:10;15.10;99.90
6375;DHT22;35400;45.472;-122.822;2023-08-20T14:41:37;15.20;99.90
6375;DHT22;35400;45.472;-122.822;2023-08-20T14:44:04;15.30;99.90
6375;DHT22;35400;45.472;-122.822;2023-08-20T14:46:31;15.40;99.90
6375;DHT22;35400;45.472;-122.822;2023-08-20T14:48:58;15.40;99.90
6375;DHT22;35400;45.472;-122.822;2023-08-20T14:51:25;15.60;99.90
6375;DHT22;35400;45.472;-122.822;2023-08-20T14:53:51;15.70;99.90
6375;DHT22;35400;45.472;-122.822;2023-08-20T14:56:18;15.80;99.90
6375;DHT22;35400;45.472;-122.822;2023-08-20T14:58:45;16.00;99.90
6375;DHT22;35400;45.472;-122.822;2023-08-20T15:01:12;16.20;99.90
6375;DHT22;35400;45.472;-122.822;2023-08-20T15:03:39;16.30;99.90
6375;DHT22;35400;45.472;-122.822;2023-08-20T15:06:06;16.50;99.90
6375;DHT22;35400;45.472;-122.822;2023-08-20T15:08:33;16.60;99.90
6375;DHT22;35400;45.472;-122.822;2023-08-20T15:11:00;16.80;99.90
6375;DHT22;35400;45.472;-122.822;2023-08-20T15:13:33;17.00;99.90
6375;DHT22;35400;45.472;-122.822;2023-08-20T15:16:00;17.20;99.90
6375;DHT22;35400;45.472;-122.822;2023-08-20T15:18:27;17.40;99.90
6375;DHT22;35400;45.472;-122.822;2023-08-20T15:20:58;17.60;99.90